createdAt,value
2019-02-11T00:01:23.451Z,19.00
2019-02-11T00:03:59.470Z,18.90
2019-02-11T00:06:23.934Z,18.80
2019-02-11T00:08:52.893Z,18.80
2019-02-11T00:11:22.157Z,18.60
2019-02-11T00:13:51.447Z,18.60
2019-02-11T00:16:20.424Z,18.50
2019-02-11T00:18:49.574Z,18.40
2019-02-11T00:21:18.530Z,18.30
2019-02-11T00:23:47.515Z,18.20
2019-02-11T00:26:16.602Z,18.10
2019-02-11T00:28:45.607Z,18.00
2019-02-11T00:31:14.651Z,17.90
2019-02-11T00:33:44.327Z,17.80
2019-02-11T00:36:13.380Z,17.70
2019-02-11T00:38:42.385Z,17.70
2019-02-11T00:41:11.623Z,17.60
2019-02-11T00:43:40.674Z,17.60
2019-02-11T00:46:09.873Z,17.50
2019-02-11T00:48:39.163Z,17.50
2019-02-11T00:51:08.146Z,17.40
2019-02-11T00:53:37.203Z,17.30
2019-02-11T00:56:07.090Z,17.30
2019-02-11T00:58:36.211Z,17.20
2019-02-11T01:01:05.274Z,17.20
2019-02-11T01:03:34.698Z,17.20
2019-02-11T01:06:03.820Z,17.20
2019-02-11T01:08:33.337Z,17.10
2019-02-11T01:11:02.899Z,17.10
2019-02-11T01:13:31.951Z,17.10
2019-02-11T01:16:01.098Z,17.10
2019-02-11T01:18:30.165Z,17.00
2019-02-11T01:20:59.153Z,17.10
2019-02-11T01:23:28.225Z,17.00
2019-02-11T01:25:57.230Z,17.00
2019-02-11T01:28:26.301Z,17.00
2019-02-11T01:30:55.405Z,17.00
2019-02-11T01:33:24.499Z,17.00
2019-02-11T01:35:53.545Z,17.00
2019-02-11T01:38:22.525Z,16.90
2019-02-11T01:40:52.060Z,16.90
2019-02-11T01:43:21.103Z,16.90
2019-02-11T01:45:50.154Z,16.90
2019-02-11T01:48:19.618Z,16.90
2019-02-11T01:50:48.685Z,16.80
2019-02-11T01:53:17.733Z,16.70
2019-02-11T01:55:47.199Z,16.80
2019-02-11T01:58:16.268Z,16.80
2019-02-11T02:00:45.298Z,16.80
2019-02-11T02:03:14.893Z,16.80
2019-02-11T02:05:43.938Z,16.80
2019-02-11T02:08:12.905Z,16.80
2019-02-11T02:10:42.859Z,16.80
2019-02-11T02:13:11.867Z,16.70
2019-02-11T02:15:41.035Z,16.70
2019-02-11T02:18:10.024Z,16.70
2019-02-11T02:20:39.056Z,16.70
2019-02-11T02:23:08.106Z,16.60
2019-02-11T02:25:37.165Z,16.60
2019-02-11T02:28:06.266Z,16.60
2019-02-11T02:30:35.326Z,16.50
2019-02-11T02:33:04.801Z,16.40
2019-02-11T02:35:33.803Z,16.40
2019-02-11T02:38:02.787Z,16.40
2019-02-11T02:40:32.765Z,16.40
2019-02-11T02:43:01.801Z,16.40
2019-02-11T02:45:30.893Z,16.40
2019-02-11T02:48:00.350Z,16.30
2019-02-11T02:50:29.484Z,16.30
2019-02-11T02:52:58.475Z,16.30
2019-02-11T02:55:27.556Z,16.30
2019-02-11T02:57:56.636Z,16.30
2019-02-11T03:00:25.731Z,16.30
2019-02-11T03:02:55.210Z,16.30
2019-02-11T03:05:24.277Z,16.20
2019-02-11T03:07:53.336Z,16.30
2019-02-11T03:10:22.452Z,16.20
2019-02-11T03:12:52.179Z,16.30
2019-02-11T03:15:21.334Z,16.20
2019-02-11T03:17:50.432Z,16.20
2019-02-11T03:20:19.566Z,16.20
2019-02-11T03:22:48.634Z,16.20
2019-02-11T03:25:18.002Z,16.20
2019-02-11T03:27:46.997Z,16.20
2019-02-11T03:30:16.073Z,16.20
2019-02-11T03:32:45.571Z,16.10
2019-02-11T03:35:14.846Z,16.10
2019-02-11T03:37:43.912Z,16.10
2019-02-11T03:40:13.021Z,16.10
2019-02-11T03:42:42.126Z,16.00
2019-02-11T03:45:11.447Z,16.00
2019-02-11T03:47:40.751Z,16.00
2019-02-11T03:50:09.896Z,16.00
2019-02-11T03:52:38.955Z,16.00
2019-02-11T03:55:08.132Z,16.00
2019-02-11T03:57:37.341Z,16.00
2019-02-11T04:00:07.501Z,16.00
2019-02-11T04:02:37.172Z,15.90
2019-02-11T04:05:06.684Z,15.90
2019-02-11T04:07:35.745Z,15.90
2019-02-11T04:10:05.609Z,15.90
2019-02-11T04:12:34.670Z,15.90
2019-02-11T04:15:04.789Z,15.90
2019-02-11T04:17:33.886Z,15.90
2019-02-11T04:20:03.087Z,15.90
2019-02-11T04:22:32.270Z,15.80
2019-02-11T04:25:02.078Z,15.80
2019-02-11T04:27:31.148Z,15.80
2019-02-11T04:30:00.255Z,15.80
2019-02-11T04:32:29.982Z,15.80
2019-02-11T04:34:59.192Z,15.80
2019-02-11T04:37:28.295Z,15.80
2019-02-11T04:39:57.508Z,15.70
2019-02-11T04:42:26.583Z,15.70
2019-02-11T04:44:55.677Z,15.70
2019-02-11T04:47:25.508Z,15.70
2019-02-11T04:49:54.590Z,15.70
2019-02-11T04:52:23.690Z,15.70
2019-02-11T04:54:52.838Z,15.70
2019-02-11T04:57:21.930Z,15.70
2019-02-11T04:59:51.135Z,15.70
2019-02-11T05:02:20.487Z,15.60
2019-02-11T05:04:49.566Z,15.60
2019-02-11T05:07:18.638Z,15.60
2019-02-11T05:09:47.794Z,15.60
2019-02-11T05:12:16.938Z,15.00
2019-02-11T05:14:46.045Z,15.60
2019-02-11T05:17:15.509Z,15.60
2019-02-11T05:19:45.104Z,15.60
2019-02-11T05:22:14.363Z,15.60
2019-02-11T05:24:43.736Z,15.60
2019-02-11T05:27:12.928Z,15.60
2019-02-11T05:29:42.148Z,15.60
2019-02-11T05:32:11.497Z,15.60
2019-02-11T05:34:40.645Z,15.60
2019-02-11T05:37:09.737Z,15.60
2019-02-11T05:39:38.840Z,15.60
2019-02-11T05:42:07.961Z,15.60
2019-02-11T05:44:37.176Z,15.60
2019-02-11T05:47:06.802Z,15.60
2019-02-11T05:49:35.868Z,15.60
2019-02-11T05:52:05.026Z,15.60
2019-02-11T05:54:34.127Z,15.50
2019-02-11T05:57:03.276Z,15.50
2019-02-11T05:59:32.351Z,15.50
2019-02-11T06:02:01.737Z,15.50
2019-02-11T06:04:30.840Z,15.50
2019-02-11T06:06:59.970Z,15.50
2019-02-11T06:09:29.010Z,15.50
2019-02-11T06:11:58.167Z,15.50
2019-02-11T06:14:27.362Z,15.40
2019-02-11T06:16:56.580Z,15.40
2019-02-11T06:19:26.438Z,15.40
2019-02-11T06:21:55.498Z,15.40
2019-02-11T06:24:25.079Z,15.40
2019-02-11T06:26:54.225Z,15.40
2019-02-11T06:29:23.340Z,15.30
2019-02-11T06:31:52.585Z,15.30
2019-02-11T06:34:21.776Z,15.30
2019-02-11T06:36:51.022Z,15.30
2019-02-11T06:39:20.343Z,15.30
2019-02-11T06:41:49.515Z,15.30
2019-02-11T06:44:18.721Z,15.30
2019-02-11T06:46:48.463Z,15.30
2019-02-11T06:49:17.576Z,15.30
2019-02-11T06:51:47.871Z,15.20
2019-02-11T06:54:17.195Z,15.30
2019-02-11T06:56:46.303Z,15.30
2019-02-11T06:59:15.425Z,15.30
2019-02-11T07:01:44.686Z,15.30
2019-02-11T07:04:13.736Z,15.30
2019-02-11T07:06:42.930Z,15.30
2019-02-11T07:09:12.093Z,15.40
2019-02-11T07:11:41.249Z,15.30
2019-02-11T07:14:10.404Z,15.20
2019-02-11T07:16:39.626Z,15.20
2019-02-11T07:19:09.321Z,15.20
2019-02-11T07:21:39.895Z,15.10
2019-02-11T07:24:08.923Z,15.60
2019-02-11T07:26:38.143Z,15.90
2019-02-11T07:29:07.407Z,16.00
2019-02-11T07:31:36.415Z,16.10
2019-02-11T07:34:05.393Z,16.30
2019-02-11T07:36:34.451Z,16.40
2019-02-11T07:39:22.798Z,16.50
2019-02-11T07:42:10.691Z,16.50
2019-02-11T07:44:43.802Z,16.40
2019-02-11T07:47:12.967Z,16.40
2019-02-11T07:49:42.397Z,16.30
2019-02-11T07:52:11.839Z,16.30
2019-02-11T07:54:40.905Z,16.80
2019-02-11T07:57:09.956Z,17.00
2019-02-11T07:59:39.615Z,17.20
2019-02-11T08:02:08.671Z,17.20
2019-02-11T08:04:37.791Z,17.00
2019-02-11T08:07:07.100Z,16.90
2019-02-11T08:09:36.247Z,16.80
2019-02-11T08:12:05.325Z,16.70
2019-02-11T08:14:34.331Z,16.70
2019-02-11T08:17:03.394Z,16.70
2019-02-11T08:19:32.522Z,16.90
2019-02-11T08:22:01.686Z,17.30
2019-02-11T08:24:32.055Z,17.40
2019-02-11T08:27:01.434Z,17.60
2019-02-11T08:29:31.006Z,17.50
2019-02-11T08:32:00.044Z,17.40
2019-02-11T08:34:29.146Z,17.30
2019-02-11T08:36:58.242Z,17.30
2019-02-11T08:39:27.303Z,17.30
2019-02-11T08:41:56.857Z,17.20
2019-02-11T08:44:26.894Z,17.10
2019-02-11T08:46:56.055Z,17.20
2019-02-11T08:49:25.122Z,17.30
2019-02-11T08:51:54.362Z,17.40
2019-02-11T08:54:23.417Z,17.30
2019-02-11T08:56:52.470Z,17.30
2019-02-11T08:59:22.571Z,17.40
2019-02-11T09:01:51.652Z,17.20
2019-02-11T09:04:20.710Z,17.10
2019-02-11T09:06:49.811Z,17.00
2019-02-11T09:09:18.835Z,17.00
2019-02-11T09:11:47.896Z,16.90
2019-02-11T09:14:16.898Z,16.90
2019-02-11T09:16:45.950Z,16.70
2019-02-11T09:19:15.008Z,16.60
2019-02-11T09:21:44.574Z,16.40
2019-02-11T09:24:13.655Z,16.40
2019-02-11T09:26:42.807Z,16.30
2019-02-11T09:29:11.875Z,16.30
2019-02-11T09:31:41.034Z,16.20
2019-02-11T09:34:10.106Z,16.20
2019-02-11T09:36:39.195Z,16.30
2019-02-11T09:39:09.214Z,16.30
2019-02-11T09:41:38.843Z,16.30
2019-02-11T09:44:08.457Z,16.30
2019-02-11T09:46:37.444Z,16.40
2019-02-11T09:49:06.493Z,16.40
2019-02-11T09:51:39.991Z,16.30
2019-02-11T09:54:09.327Z,16.70
2019-02-11T09:56:38.434Z,17.00
2019-02-11T09:59:08.182Z,17.00
2019-02-11T10:01:37.279Z,16.90
2019-02-11T10:04:06.382Z,16.90
2019-02-11T10:06:35.603Z,16.90
2019-02-11T10:09:05.203Z,16.80
2019-02-11T10:11:34.262Z,16.80
2019-02-11T10:14:03.337Z,16.80
2019-02-11T10:16:32.443Z,16.90
2019-02-11T10:19:01.491Z,16.80
2019-02-11T10:21:31.499Z,16.80
2019-02-11T10:24:00.550Z,16.80
2019-02-11T10:26:29.594Z,16.80
2019-02-11T10:28:58.658Z,16.80
2019-02-11T10:31:27.747Z,16.80
2019-02-11T10:33:56.803Z,16.80
2019-02-11T10:36:25.892Z,16.80
2019-02-11T10:38:54.935Z,16.80
2019-02-11T10:41:24.433Z,16.80
2019-02-11T10:43:54.522Z,16.90
2019-02-11T10:46:23.598Z,17.00
2019-02-11T10:48:52.711Z,17.00
2019-02-11T10:51:22.057Z,17.00
2019-02-11T10:53:51.118Z,17.10
2019-02-11T10:56:21.815Z,17.00
2019-02-11T10:58:51.635Z,17.00
2019-02-11T11:01:20.665Z,17.00
2019-02-11T11:03:49.706Z,17.00
2019-02-11T11:06:19.106Z,17.00
2019-02-11T11:08:48.177Z,17.00
2019-02-11T11:11:17.371Z,17.00
2019-02-11T11:13:46.470Z,17.00
2019-02-11T11:16:15.574Z,17.10
2019-02-11T11:18:44.642Z,17.20
2019-02-11T11:21:13.865Z,17.20
2019-02-11T11:23:42.918Z,17.20
2019-02-11T11:26:12.017Z,17.20
2019-02-11T11:28:41.234Z,17.10
2019-02-11T11:31:10.332Z,17.10
2019-02-11T11:33:39.582Z,17.10
2019-02-11T11:36:08.715Z,17.10
2019-02-11T11:38:37.800Z,17.20
2019-02-11T11:41:06.902Z,17.10
2019-02-11T11:43:36.583Z,17.10
2019-02-11T11:46:06.254Z,17.10
2019-02-11T11:48:35.309Z,17.00
2019-02-11T11:51:04.550Z,17.00
2019-02-11T11:53:33.592Z,17.00
2019-02-11T11:56:02.753Z,17.00
2019-02-11T11:58:32.283Z,17.00
2019-02-11T12:01:01.812Z,17.10
2019-02-11T12:03:30.907Z,17.10
2019-02-11T12:06:00.337Z,17.10
2019-02-11T12:08:29.382Z,17.10
2019-02-11T12:10:58.442Z,17.00
2019-02-11T12:13:27.677Z,17.00
2019-02-11T12:15:56.814Z,16.90
2019-02-11T12:18:25.954Z,17.00
2019-02-11T12:20:55.168Z,17.00
2019-02-11T12:23:24.299Z,17.10
2019-02-11T12:25:53.354Z,17.00
2019-02-11T12:28:22.585Z,17.00
2019-02-11T12:30:53.451Z,17.00
2019-02-11T12:33:22.658Z,16.90
2019-02-11T12:35:52.119Z,16.90
2019-02-11T12:38:21.266Z,16.90
2019-02-11T12:40:50.360Z,16.80
2019-02-11T12:43:20.219Z,16.80
2019-02-11T12:45:49.749Z,16.70
2019-02-11T12:48:18.845Z,16.70
2019-02-11T12:50:48.434Z,16.60
2019-02-11T12:53:17.605Z,16.60
2019-02-11T12:55:46.673Z,16.70
2019-02-11T12:58:16.360Z,16.70
2019-02-11T13:00:45.371Z,16.80
2019-02-11T13:03:14.433Z,16.80
2019-02-11T13:05:46.358Z,16.90
2019-02-11T13:08:14.776Z,17.00
2019-02-11T13:10:43.904Z,17.00
2019-02-11T13:13:13.075Z,17.00
2019-02-11T13:15:59.979Z,17.00
2019-02-11T13:18:12.962Z,17.10
2019-02-11T13:20:42.168Z,17.00
2019-02-11T13:23:11.201Z,17.10
2019-02-11T13:25:40.314Z,17.10
2019-02-11T13:28:10.082Z,17.10
2019-02-11T13:30:39.255Z,17.10
2019-02-11T13:33:08.385Z,17.10
2019-02-11T13:35:37.574Z,17.10
2019-02-11T13:38:06.695Z,17.10
2019-02-11T13:40:35.836Z,17.10
2019-02-11T13:43:05.230Z,17.10
2019-02-11T13:45:34.486Z,17.10
2019-02-11T13:48:04.149Z,17.10
2019-02-11T13:50:33.784Z,17.10
2019-02-11T13:53:02.912Z,17.10
2019-02-11T13:55:32.209Z,17.10
2019-02-11T13:58:02.598Z,17.10
2019-02-11T14:00:32.658Z,17.10
2019-02-11T14:03:03.314Z,17.10
2019-02-11T14:05:33.584Z,17.00
2019-02-11T14:08:03.003Z,17.00
2019-02-11T14:10:32.256Z,17.00
2019-02-11T14:13:01.393Z,17.00
2019-02-11T14:15:30.578Z,17.00
2019-02-11T14:18:14.234Z,16.90
2019-02-11T14:20:41.764Z,17.00
2019-02-11T14:23:10.885Z,17.00
2019-02-11T14:25:45.878Z,17.00
2019-02-11T14:28:11.353Z,17.00
2019-02-11T14:30:40.525Z,17.00
2019-02-11T14:33:09.708Z,17.00
2019-02-11T14:35:38.867Z,17.00
2019-02-11T14:38:07.958Z,17.00
2019-02-11T14:40:37.575Z,17.10
2019-02-11T14:43:06.681Z,17.00
2019-02-11T14:45:36.129Z,17.00
2019-02-11T14:48:05.812Z,17.00
2019-02-11T14:50:35.131Z,16.90
2019-02-11T14:53:04.138Z,16.90
2019-02-11T14:55:33.227Z,16.90
2019-02-11T14:58:02.316Z,16.90
2019-02-11T15:00:31.369Z,16.80
2019-02-11T15:03:01.269Z,16.80
2019-02-11T15:05:30.436Z,16.90
2019-02-11T15:07:59.507Z,16.90
2019-02-11T15:10:28.709Z,16.80
2019-02-11T15:12:57.767Z,16.80
2019-02-11T15:15:26.823Z,16.80
2019-02-11T15:17:55.816Z,16.70
2019-02-11T15:20:24.877Z,16.70
2019-02-11T15:22:54.063Z,16.70
2019-02-11T15:25:23.175Z,16.60
2019-02-11T15:27:52.338Z,16.60
2019-02-11T15:30:21.378Z,16.50
2019-02-11T15:32:50.612Z,16.50
2019-02-11T15:35:19.795Z,16.40
2019-02-11T15:37:48.885Z,16.40
2019-02-11T15:40:19.922Z,16.40
2019-02-11T15:42:48.977Z,16.40
2019-02-11T15:45:18.183Z,16.40
2019-02-11T15:47:48.030Z,16.30
2019-02-11T15:50:17.355Z,16.30
2019-02-11T15:52:46.455Z,16.30
2019-02-11T15:55:16.970Z,16.70
2019-02-11T15:57:46.046Z,16.90
2019-02-11T16:00:17.075Z,16.90
2019-02-11T16:02:46.350Z,16.80
2019-02-11T16:05:16.540Z,17.40
2019-02-11T16:07:46.101Z,18.60
2019-02-11T16:10:17.333Z,18.80
2019-02-11T16:12:46.383Z,19.20
2019-02-11T16:15:15.446Z,19.60
2019-02-11T16:17:44.636Z,20.00
2019-02-11T16:20:14.671Z,20.70
2019-02-11T16:22:43.927Z,21.20
2019-02-11T16:25:13.092Z,21.70
2019-02-11T16:27:42.118Z,22.30
2019-02-11T16:30:13.555Z,23.40
2019-02-11T16:32:42.841Z,24.30
2019-02-11T16:35:12.820Z,24.70
2019-02-11T16:37:41.936Z,25.40
2019-02-11T16:40:13.541Z,25.50
2019-02-11T16:42:42.610Z,25.30
2019-02-11T16:45:11.950Z,25.50
2019-02-11T16:47:41.768Z,25.60
2019-02-11T16:50:11.002Z,25.30
2019-02-11T16:52:40.092Z,25.00
2019-02-11T16:55:09.715Z,25.00
2019-02-11T16:57:38.753Z,25.40
2019-02-11T17:00:10.199Z,25.10
2019-02-11T17:02:39.904Z,25.10
2019-02-11T17:05:09.354Z,25.30
2019-02-11T17:07:41.962Z,25.40
2019-02-11T17:10:10.410Z,25.00
2019-02-11T17:12:39.453Z,24.50
2019-02-11T17:15:10.708Z,24.40
2019-02-11T17:17:39.783Z,24.60
2019-02-11T17:20:10.076Z,24.50
2019-02-11T17:22:39.054Z,24.50
2019-02-11T17:25:09.298Z,24.00
2019-02-11T17:27:38.347Z,24.10
2019-02-11T17:30:13.454Z,24.20
2019-02-11T17:32:42.515Z,24.20
2019-02-11T17:35:11.647Z,24.00
2019-02-11T17:37:40.710Z,23.70
2019-02-11T17:40:11.827Z,23.90
2019-02-11T17:42:41.087Z,23.90
2019-02-11T17:45:13.397Z,23.80
2019-02-11T17:47:42.826Z,23.60
2019-02-11T17:50:12.154Z,23.50
2019-02-11T17:52:41.382Z,23.80
2019-02-11T17:55:11.451Z,23.80
2019-02-11T17:57:40.431Z,23.50
2019-02-11T18:00:23.021Z,23.20
2019-02-11T18:02:52.072Z,23.30
2019-02-11T18:05:21.238Z,23.50
2019-02-11T18:07:50.550Z,23.50
2019-02-11T18:10:19.691Z,23.30
2019-02-11T18:12:48.758Z,23.20
2019-02-11T18:15:17.828Z,22.80
2019-02-11T18:17:46.919Z,22.90
2019-02-11T18:20:15.947Z,23.10
2019-02-11T18:22:45.477Z,22.80
2019-02-11T18:25:14.534Z,22.70
2019-02-11T18:27:43.707Z,22.60
2019-02-11T18:30:13.946Z,22.50
2019-02-11T18:32:43.016Z,22.40
2019-02-11T18:35:12.326Z,22.20
2019-02-11T18:37:41.511Z,22.00
2019-02-11T18:40:12.149Z,21.80
2019-02-11T18:42:41.421Z,21.90
2019-02-11T18:45:12.503Z,22.10
2019-02-11T18:47:41.992Z,22.20
2019-02-11T18:50:12.121Z,22.10
2019-02-11T18:52:41.250Z,21.90
2019-02-11T18:55:11.213Z,21.90
2019-02-11T18:57:40.266Z,21.90
2019-02-11T19:00:12.008Z,22.00
2019-02-11T19:02:41.009Z,22.00
2019-02-11T19:05:10.072Z,21.90
2019-02-11T19:07:39.427Z,21.80
2019-02-11T19:10:09.615Z,21.70
2019-02-11T19:12:38.767Z,21.80
2019-02-11T19:15:09.195Z,22.20
2019-02-11T19:17:38.167Z,22.40
2019-02-11T19:20:08.099Z,22.20
2019-02-11T19:22:37.237Z,21.90
2019-02-11T19:25:06.901Z,21.80
2019-02-11T19:27:35.877Z,21.70
2019-02-11T19:30:06.158Z,21.40
2019-02-11T19:32:35.118Z,21.20
2019-02-11T19:35:04.203Z,21.20
2019-02-11T19:37:33.275Z,21.60
2019-02-11T19:40:02.326Z,22.00
2019-02-11T19:42:31.442Z,22.20
2019-02-11T19:45:00.901Z,22.30
2019-02-11T19:47:30.369Z,22.50
2019-02-11T19:49:59.746Z,22.80
2019-02-11T19:52:29.385Z,22.80
2019-02-11T19:54:58.415Z,22.80
2019-02-11T19:57:27.474Z,23.00
2019-02-11T19:59:56.672Z,23.10
2019-02-11T20:02:25.751Z,23.20
2019-02-11T20:04:54.823Z,23.00
2019-02-11T20:07:23.911Z,23.10
2019-02-11T20:09:52.971Z,23.30
2019-02-11T20:12:22.006Z,23.30
2019-02-11T20:14:51.094Z,23.30
2019-02-11T20:17:20.131Z,23.40
2019-02-11T20:19:49.187Z,23.60
2019-02-11T20:22:18.885Z,23.60
2019-02-11T20:24:47.944Z,23.60
2019-02-11T20:27:17.036Z,23.30
2019-02-11T20:29:46.557Z,23.30
2019-02-11T20:32:15.515Z,23.40
2019-02-11T20:34:44.571Z,23.50
2019-02-11T20:37:13.616Z,23.40
2019-02-11T20:39:42.650Z,23.10
2019-02-11T20:42:11.622Z,23.30
2019-02-11T20:44:41.120Z,23.60
2019-02-11T20:47:10.323Z,23.40
2019-02-11T20:49:39.558Z,23.20
2019-02-11T20:52:08.785Z,23.00
2019-02-11T20:54:37.855Z,22.70
2019-02-11T20:57:06.815Z,22.80
2019-02-11T20:59:35.953Z,23.10
2019-02-11T21:02:04.947Z,23.10
2019-02-11T21:04:34.054Z,23.10
2019-02-11T21:07:03.278Z,23.00
2019-02-11T21:09:32.245Z,22.90
2019-02-11T21:12:01.299Z,22.80
2019-02-11T21:14:30.562Z,23.00
2019-02-11T21:16:59.620Z,23.10
2019-02-11T21:19:28.583Z,23.10
2019-02-11T21:21:57.862Z,23.10
2019-02-11T21:24:26.913Z,23.00
2019-02-11T21:26:56.111Z,22.80
2019-02-11T21:29:25.182Z,22.90
2019-02-11T21:31:54.419Z,23.00
2019-02-11T21:34:23.455Z,22.90
2019-02-11T21:36:52.535Z,22.80
2019-02-11T21:39:21.582Z,22.80
2019-02-11T21:41:50.555Z,22.60
2019-02-11T21:44:20.315Z,22.40
2019-02-11T21:46:49.358Z,22.20
2019-02-11T21:49:18.487Z,21.80
2019-02-11T21:51:48.248Z,21.50
2019-02-11T21:54:17.232Z,21.40
2019-02-11T21:56:46.270Z,21.80
2019-02-11T21:59:15.799Z,22.00
2019-02-11T22:01:44.835Z,22.00
2019-02-11T22:04:13.885Z,21.90
2019-02-11T22:06:43.553Z,21.70
2019-02-11T22:09:12.590Z,21.50
2019-02-11T22:11:41.629Z,21.80
2019-02-11T22:14:10.752Z,22.20
2019-02-11T22:16:39.710Z,22.00
2019-02-11T22:19:08.945Z,21.80
2019-02-11T22:21:38.038Z,21.40
2019-02-11T22:24:07.011Z,21.30
2019-02-11T22:26:36.224Z,21.00
2019-02-11T22:29:05.319Z,20.90
2019-02-11T22:31:34.286Z,20.70
2019-02-11T22:34:03.334Z,20.50
2019-02-11T22:36:32.337Z,20.50
2019-02-11T22:39:01.388Z,20.40
2019-02-11T22:41:30.438Z,20.30
2019-02-11T22:44:00.800Z,20.10
2019-02-11T22:46:29.860Z,19.90
2019-02-11T22:48:58.935Z,19.80
2019-02-11T22:51:28.355Z,19.70
2019-02-11T22:53:57.422Z,19.70
2019-02-11T22:56:26.471Z,19.50
2019-02-11T22:58:55.915Z,19.40
2019-02-11T23:01:24.979Z,19.40
2019-02-11T23:03:55.345Z,19.30
2019-02-11T23:06:25.067Z,19.20
2019-02-11T23:08:54.098Z,19.10
2019-02-11T23:11:23.133Z,19.10
2019-02-11T23:13:52.330Z,19.10
2019-02-11T23:16:21.379Z,18.90
2019-02-11T23:18:50.413Z,18.80
2019-02-11T23:21:19.542Z,18.70
2019-02-11T23:23:48.574Z,18.70
2019-02-11T23:26:17.555Z,18.70
2019-02-11T23:28:46.642Z,18.60
2019-02-11T23:31:15.617Z,18.50
2019-02-11T23:33:44.666Z,18.50
2019-02-11T23:36:13.727Z,18.50
2019-02-11T23:38:42.796Z,18.40
2019-02-11T23:41:11.847Z,18.40
2019-02-11T23:43:41.074Z,18.20
2019-02-11T23:46:10.146Z,18.10
2019-02-11T23:48:39.213Z,17.90
2019-02-11T23:51:08.671Z,17.90
2019-02-11T23:53:38.131Z,17.90
2019-02-11T23:56:07.242Z,17.90
2019-02-11T23:58:36.636Z,17.70
